^^
Meteo Knjazevac Station Historical Data
Daily Summary for August 25, 2021 Units:  Both    English   Metric
Daily Weekly Monthly Yearly Custom
  High: Low: Average:
Temperature: 56.1 °F /  13.4 °C 28 °F /  -2.2 °C 39.1 °F /  3.9 °C
Dew Point: 45.8 °F /  7.7 °C 26.5 °F /  -3.1 °C 35.6 °F /  2 °C
Humidity: 99% 68% 88%
Wind Speed: 6mph /  9.7km/h - 1.6mph /  2.6km/h
Wind Gust: 10mph /  16.1km/h - -
Wind- - SW
Pressure: 30.50 in /  1032.7 hPa 30.35 in /  1027.7 hPa -
Precipitation: 0.00 in /  0 mm    
Historical Graphs
 
 
Tabular Data for August 25, 2021
Time Temperature Dew Point Pressure Wind Wind Speed Wind Gust Humidity Rainfall Rate (Hourly) solar Conditions
00:00 34 °F /  1.1 °C 31.4 °F /  -0.3 °C 30.47in /  1031.7hPa West 2mph /  3.2km/h 5mph /  8km/h 90% 0.00in /  0mm 0 W/m2
00:10 33.6 °F /  0.9 °C 31 °F /  -0.6 °C 30.47in /  1031.7hPa West 1mph /  1.6km/h 3mph /  4.8km/h 90% 0.00in /  0mm 0 W/m2
00:20 33.4 °F /  0.8 °C 30.8 °F /  -0.7 °C 30.47in /  1031.7hPa WNW 1mph /  1.6km/h 2mph /  3.2km/h 90% 0.00in /  0mm 0 W/m2
00:30 33.3 °F /  0.7 °C 30.6 °F /  -0.8 °C 30.47in /  1031.7hPa WNW 1mph /  1.6km/h 2mph /  3.2km/h 90% 0.00in /  0mm 0 W/m2
00:40 33.1 °F /  0.6 °C 30.5 °F /  -0.8 °C 30.47in /  1031.7hPa Calm   3mph /  4.8km/h 90% 0.00in /  0mm 0 W/m2
00:50 32.7 °F /  0.4 °C 30.1 °F /  -1.1 °C 30.47in /  1031.7hPa NW 1mph /  1.6km/h 3mph /  4.8km/h 90% 0.00in /  0mm 0 W/m2
01:00 32.4 °F /  0.2 °C 29.8 °F /  -1.2 °C 30.47in /  1031.7hPa WNW 1mph /  1.6km/h 3mph /  4.8km/h 90% 0.00in /  0mm 0 W/m2
01:10 32.2 °F /  0.1 °C 29.8 °F /  -1.2 °C 30.47in /  1031.7hPa WNW 2mph /  3.2km/h 4mph /  6.4km/h 91% 0.00in /  0mm 0 W/m2
01:20 32.2 °F /  0.1 °C 30.4 °F /  -0.9 °C 30.47in /  1031.7hPa West 1mph /  1.6km/h 4mph /  6.4km/h 93% 0.00in /  0mm 0 W/m2
01:30 31.8 °F /  -0.1 °C 29.8 °F /  -1.2 °C 30.47in /  1031.7hPa West 2mph /  3.2km/h 3mph /  4.8km/h 92% 0.00in /  0mm 0 W/m2
01:40 31.6 °F /  -0.2 °C 29.8 °F /  -1.2 °C 30.47in /  1031.7hPa West 2mph /  3.2km/h 4mph /  6.4km/h 93% 0.00in /  0mm 0 W/m2
01:50 31.6 °F /  -0.2 °C 30.1 °F /  -1.1 °C 30.47in /  1031.7hPa WNW 2mph /  3.2km/h 4mph /  6.4km/h 94% 0.00in /  0mm 0 W/m2
02:00 31.5 °F /  -0.3 °C 29.7 °F /  -1.3 °C 30.47in /  1031.7hPa WNW 1mph /  1.6km/h 2mph /  3.2km/h 93% 0.00in /  0mm 0 W/m2
02:10 31.3 °F /  -0.4 °C 29.5 °F /  -1.4 °C 30.47in /  1031.7hPa West 2mph /  3.2km/h 3mph /  4.8km/h 93% 0.00in /  0mm 0 W/m2
02:20 31.5 °F /  -0.3 °C 29.9 °F /  -1.2 °C 30.47in /  1031.7hPa WNW 1mph /  1.6km/h 3mph /  4.8km/h 94% 0.00in /  0mm 0 W/m2
02:30 31.5 °F /  -0.3 °C 30.2 °F /  -1 °C 30.46in /  1031.4hPa Calm   3mph /  4.8km/h 95% 0.00in /  0mm 0 W/m2
02:40 31.1 °F /  -0.5 °C 29.3 °F /  -1.5 °C 30.46in /  1031.4hPa West 2mph /  3.2km/h 3mph /  4.8km/h 93% 0.00in /  0mm 0 W/m2
02:50 30.9 °F /  -0.6 °C 29.1 °F /  -1.6 °C 30.47in /  1031.7hPa Calm   3mph /  4.8km/h 93% 0.00in /  0mm 0 W/m2
03:00 30.8 °F /  -0.7 °C 29.3 °F /  -1.5 °C 30.47in /  1031.7hPa Calm   2mph /  3.2km/h 94% 0.00in /  0mm 0 W/m2
03:10 30.6 °F /  -0.8 °C 28.8 °F /  -1.8 °C 30.47in /  1031.7hPa WNW 1mph /  1.6km/h 2mph /  3.2km/h 93% 0.00in /  0mm 0 W/m2
03:20 30.4 °F /  -0.9 °C 28.6 °F /  -1.9 °C 30.47in /  1031.7hPa West 1mph /  1.6km/h 2mph /  3.2km/h 93% 0.00in /  0mm 0 W/m2
03:30 30.2 °F /  -1 °C 28.4 °F /  -2 °C 30.47in /  1031.7hPa Calm   2mph /  3.2km/h 93% 0.00in /  0mm 0 W/m2
03:40 30.1 °F /  -1.1 °C 28.6 °F /  -1.9 °C 30.46in /  1031.4hPa NNW 2mph /  3.2km/h 2mph /  3.2km/h 94% 0.00in /  0mm 0 W/m2
03:50 30 °F /  -1.1 °C 28.5 °F /  -1.9 °C 30.47in /  1031.7hPa NNW 1mph /  1.6km/h 2mph /  3.2km/h 94% 0.00in /  0mm 0 W/m2
04:00 30 °F /  -1.1 °C 28.5 °F /  -1.9 °C 30.47in /  1031.7hPa Calm   3mph /  4.8km/h 94% 0.00in /  0mm 0 W/m2
04:10 29.8 °F /  -1.2 °C 28.3 °F /  -2.1 °C 30.46in /  1031.4hPa NW 1mph /  1.6km/h 2mph /  3.2km/h 94% 0.00in /  0mm 0 W/m2
04:20 29.8 °F /  -1.2 °C 28.3 °F /  -2.1 °C 30.46in /  1031.4hPa NNW 1mph /  1.6km/h 2mph /  3.2km/h 94% 0.00in /  0mm 0 W/m2
04:30 29.7 °F /  -1.3 °C 28.1 °F /  -2.2 °C 30.46in /  1031.4hPa WNW 2mph /  3.2km/h 3mph /  4.8km/h 94% 0.00in /  0mm 0 W/m2
04:40 29.5 °F /  -1.4 °C 28 °F /  -2.2 °C 30.47in /  1031.7hPa Calm   3mph /  4.8km/h 94% 0.00in /  0mm 0 W/m2
04:50 29.5 °F /  -1.4 °C 28 °F /  -2.2 °C 30.47in /  1031.7hPa Calm   2mph /  3.2km/h 94% 0.00in /  0mm 0 W/m2
05:00 29.3 °F /  -1.5 °C 27.8 °F /  -2.3 °C 30.47in /  1031.7hPa NW 1mph /  1.6km/h 2mph /  3.2km/h 94% 0.00in /  0mm 0 W/m2
05:10 29.1 °F /  -1.6 °C 27.6 °F /  -2.4 °C 30.47in /  1031.7hPa Calm   2mph /  3.2km/h 94% 0.00in /  0mm 0 W/m2
05:20 28.9 °F /  -1.7 °C 27.4 °F /  -2.6 °C 30.47in /  1031.7hPa Calm   2mph /  3.2km/h 94% 0.00in /  0mm 0 W/m2
05:30 28.9 °F /  -1.7 °C 27.4 °F /  -2.6 °C 30.46in /  1031.4hPa WNW 2mph /  3.2km/h 3mph /  4.8km/h 94% 0.00in /  0mm 0 W/m2
05:40 28.9 °F /  -1.7 °C 27.7 °F /  -2.4 °C 30.47in /  1031.7hPa WNW 3mph /  4.8km/h 4mph /  6.4km/h 95% 0.00in /  0mm 0 W/m2
05:50 29 °F /  -1.7 °C 27.7 °F /  -2.4 °C 30.47in /  1031.7hPa Calm   3mph /  4.8km/h 95% 0.00in /  0mm 0 W/m2
06:00 28.9 °F /  -1.7 °C 27.7 °F /  -2.4 °C 30.47in /  1031.7hPa Calm   1mph /  1.6km/h 95% 0.00in /  0mm 0 W/m2
06:10 28.8 °F /  -1.8 °C 27.5 °F /  -2.5 °C 30.47in /  1031.7hPa Calm     95% 0.00in /  0mm 0 W/m2
06:20 28.8 °F /  -1.8 °C 27.3 °F /  -2.6 °C 30.47in /  1031.7hPa North 1mph /  1.6km/h 3mph /  4.8km/h 94% 0.00in /  0mm 0 W/m2
06:30 28.6 °F /  -1.9 °C 27.1 °F /  -2.7 °C 30.47in /  1031.7hPa Calm   3mph /  4.8km/h 94% 0.00in /  0mm 0 W/m2
06:40 28.4 °F /  -2 °C 26.9 °F /  -2.8 °C 30.47in /  1031.7hPa Calm   2mph /  3.2km/h 94% 0.00in /  0mm 0 W/m2
06:50 28.4 °F /  -2 °C 26.9 °F /  -2.8 °C 30.47in /  1031.7hPa NW 1mph /  1.6km/h 2mph /  3.2km/h 94% 0.00in /  0mm 0 W/m2
07:00 28.1 °F /  -2.2 °C 26.6 °F /  -3 °C 30.47in /  1031.7hPa WNW 2mph /  3.2km/h 2mph /  3.2km/h 94% 0.00in /  0mm 5 W/m2
07:10 28 °F /  -2.2 °C 26.8 °F /  -2.9 °C 30.47in /  1031.7hPa NW 2mph /  3.2km/h 3mph /  4.8km/h 95% 0.00in /  0mm 11 W/m2
07:20 28 °F /  -2.2 °C 26.5 °F /  -3.1 °C 30.47in /  1031.7hPa NNW 1mph /  1.6km/h 2mph /  3.2km/h 94% 0.00in /  0mm 22 W/m2
07:30 28 °F /  -2.2 °C 26.8 °F /  -2.9 °C 30.48in /  1032.1hPa North 1mph /  1.6km/h 2mph /  3.2km/h 95% 0.00in /  0mm 38 W/m2
07:40 28 °F /  -2.2 °C 26.8 °F /  -2.9 °C 30.48in /  1032.1hPa Calm   1mph /  1.6km/h 95% 0.00in /  0mm 56 W/m2
07:50 28 °F /  -2.2 °C 26.8 °F /  -2.9 °C 30.48in /  1032.1hPa Calm   2mph /  3.2km/h 95% 0.00in /  0mm 74 W/m2
08:00 28 °F /  -2.2 °C 26.8 °F /  -2.9 °C 30.48in /  1032.1hPa Calm   1mph /  1.6km/h 95% 0.00in /  0mm 98 W/m2
08:10 28.4 °F /  -2 °C 27.2 °F /  -2.7 °C 30.48in /  1032.1hPa Calm   1mph /  1.6km/h 95% 0.00in /  0mm 118 W/m2
08:20 29.1 °F /  -1.6 °C 28.1 °F /  -2.2 °C 30.49in /  1032.4hPa WNW 1mph /  1.6km/h 2mph /  3.2km/h 96% 0.00in /  0mm 166 W/m2
08:30 30.2 °F /  -1 °C 29.7 °F /  -1.3 °C 30.49in /  1032.4hPa WNW 1mph /  1.6km/h 2mph /  3.2km/h 98% 0.00in /  0mm 145 W/m2
08:40 31.1 °F /  -0.5 °C 30.6 °F /  -0.8 °C 30.49in /  1032.4hPa WSW 1mph /  1.6km/h 2mph /  3.2km/h 98% 0.00in /  0mm 87 W/m2
08:50 31.6 °F /  -0.2 °C 31.1 °F /  -0.5 °C 30.49in /  1032.4hPa West 1mph /  1.6km/h 3mph /  4.8km/h 98% 0.00in /  0mm 91 W/m2
09:00 32.2 °F /  0.1 °C 31.7 °F /  -0.2 °C 30.50in /  1032.7hPa West 1mph /  1.6km/h 4mph /  6.4km/h 98% 0.00in /  0mm 98 W/m2
09:10 32.7 °F /  0.4 °C 32.2 °F /  0.1 °C 30.49in /  1032.4hPa WNW 2mph /  3.2km/h 3mph /  4.8km/h 98% 0.00in /  0mm 105 W/m2
09:20 33.3 °F /  0.7 °C 32.8 °F /  0.4 °C 30.49in /  1032.4hPa NW 1mph /  1.6km/h 3mph /  4.8km/h 98% 0.00in /  0mm 112 W/m2
09:30 34 °F /  1.1 °C 33.4 °F /  0.8 °C 30.49in /  1032.4hPa Calm   3mph /  4.8km/h 98% 0.00in /  0mm 115 W/m2
09:40 34.5 °F /  1.4 °C 34.3 °F /  1.3 °C 30.49in /  1032.4hPa WNW 1mph /  1.6km/h 3mph /  4.8km/h 99% 0.00in /  0mm 127 W/m2
09:50 35.1 °F /  1.7 °C 34.8 °F /  1.6 °C 30.49in /  1032.4hPa Calm   3mph /  4.8km/h 99% 0.00in /  0mm 128 W/m2
10:00 35.7 °F /  2.1 °C 35.5 °F /  1.9 °C 30.49in /  1032.4hPa Calm   3mph /  4.8km/h 99% 0.00in /  0mm 133 W/m2
10:10 36.3 °F /  2.4 °C 36.1 °F /  2.3 °C 30.49in /  1032.4hPa Calm   2mph /  3.2km/h 99% 0.00in /  0mm 120 W/m2
10:20 36.9 °F /  2.7 °C 36.6 °F /  2.6 °C 30.49in /  1032.4hPa North 1mph /  1.6km/h 4mph /  6.4km/h 99% 0.00in /  0mm 156 W/m2
10:30 37.6 °F /  3.1 °C 37.3 °F /  2.9 °C 30.49in /  1032.4hPa NNE 2mph /  3.2km/h 6mph /  9.7km/h 99% 0.00in /  0mm 166 W/m2
10:40 38.1 °F /  3.4 °C 37.9 °F /  3.3 °C 30.49in /  1032.4hPa NNE 3mph /  4.8km/h 6mph /  9.7km/h 99% 0.00in /  0mm 149 W/m2
10:50 38.5 °F /  3.6 °C 38 °F /  3.3 °C 30.48in /  1032.1hPa NNE 3mph /  4.8km/h 6mph /  9.7km/h 98% 0.00in /  0mm 143 W/m2
11:00 38.8 °F /  3.8 °C 38.3 °F /  3.5 °C 30.48in /  1032.1hPa NNE 5mph /  8km/h 7mph /  11.3km/h 98% 0.00in /  0mm 170 W/m2
11:10 39.2 °F /  4 °C 38.7 °F /  3.7 °C 30.48in /  1032.1hPa NNE 1mph /  1.6km/h 8mph /  12.9km/h 98% 0.00in /  0mm 147 W/m2
11:20 39.7 °F /  4.3 °C 38.7 °F /  3.7 °C 30.48in /  1032.1hPa NNE 5mph /  8km/h 8mph /  12.9km/h 96% 0.00in /  0mm 170 W/m2
11:30 40.1 °F /  4.5 °C 39.1 °F /  3.9 °C 30.48in /  1032.1hPa NNE 3mph /  4.8km/h 8mph /  12.9km/h 96% 0.00in /  0mm 149 W/m2
11:40 40.5 °F /  4.7 °C 39.4 °F /  4.1 °C 30.48in /  1032.1hPa NNE 5mph /  8km/h 7mph /  11.3km/h 96% 0.00in /  0mm 149 W/m2
11:50 40.8 °F /  4.9 °C 39.5 °F /  4.2 °C 30.47in /  1031.7hPa North 3mph /  4.8km/h 8mph /  12.9km/h 95% 0.00in /  0mm 167 W/m2
12:00 41.2 °F /  5.1 °C 39.9 °F /  4.4 °C 30.47in /  1031.7hPa North 6mph /  9.7km/h 9mph /  14.5km/h 95% 0.00in /  0mm 161 W/m2
12:10 41.7 °F /  5.4 °C 40.4 °F /  4.7 °C 30.47in /  1031.7hPa North 2mph /  3.2km/h 9mph /  14.5km/h 95% 0.00in /  0mm 163 W/m2
12:20 41.9 °F /  5.5 °C 40.3 °F /  4.6 °C 30.46in /  1031.4hPa North 5mph /  8km/h 8mph /  12.9km/h 94% 0.00in /  0mm 180 W/m2
12:30 42.3 °F /  5.7 °C 40.7 °F /  4.8 °C 30.46in /  1031.4hPa NNE 2mph /  3.2km/h 8mph /  12.9km/h 94% 0.00in /  0mm 233 W/m2
12:40 43 °F /  6.1 °C 41.3 °F /  5.2 °C 30.45in /  1031hPa North 2mph /  3.2km/h 5mph /  8km/h 94% 0.00in /  0mm 252 W/m2
12:50 43.7 °F /  6.5 °C 41.8 °F /  5.4 °C 30.45in /  1031hPa North 3mph /  4.8km/h 6mph /  9.7km/h 93% 0.00in /  0mm 411 W/m2
13:00 45 °F /  7.2 °C 42.5 °F /  5.8 °C 30.44in /  1030.7hPa NNW 1mph /  1.6km/h 6mph /  9.7km/h 91% 0.00in /  0mm 513 W/m2
13:10 46.6 °F /  8.1 °C 43.8 °F /  6.6 °C 30.44in /  1030.7hPa NNW 3mph /  4.8km/h 8mph /  12.9km/h 90% 0.00in /  0mm 505 W/m2
13:20 47.7 °F /  8.7 °C 44.3 °F /  6.8 °C 30.43in /  1030.4hPa SW 3mph /  4.8km/h 7mph /  11.3km/h 88% 0.00in /  0mm 496 W/m2
13:30 48.4 °F /  9.1 °C 44.1 °F /  6.7 °C 30.43in /  1030.4hPa WSW 3mph /  4.8km/h 6mph /  9.7km/h 85% 0.00in /  0mm 485 W/m2
13:40 48.9 °F /  9.4 °C 44.3 °F /  6.8 °C 30.42in /  1030hPa SW 2mph /  3.2km/h 6mph /  9.7km/h 84% 0.00in /  0mm 472 W/m2
13:50 49.6 °F /  9.8 °C 44.7 °F /  7.1 °C 30.42in /  1030hPa SW 3mph /  4.8km/h 6mph /  9.7km/h 83% 0.00in /  0mm 458 W/m2
14:00 50.3 °F /  10.2 °C 45.4 °F /  7.4 °C 30.41in /  1029.7hPa SW 3mph /  4.8km/h 6mph /  9.7km/h 83% 0.00in /  0mm 443 W/m2
14:10 50.9 °F /  10.5 °C 44.9 °F /  7.2 °C 30.41in /  1029.7hPa SW 3mph /  4.8km/h 7mph /  11.3km/h 80% 0.00in /  0mm 426 W/m2
14:20 51.2 °F /  10.7 °C 45 °F /  7.2 °C 30.40in /  1029.3hPa WSW 2mph /  3.2km/h 7mph /  11.3km/h 79% 0.00in /  0mm 408 W/m2
14:30 51.8 °F /  11 °C 45.5 °F /  7.5 °C 30.40in /  1029.3hPa WSW 3mph /  4.8km/h 6mph /  9.7km/h 79% 0.00in /  0mm 389 W/m2
14:40 52.5 °F /  11.4 °C 45.8 °F /  7.7 °C 30.39in /  1029hPa WSW 3mph /  4.8km/h 6mph /  9.7km/h 78% 0.00in /  0mm 369 W/m2
14:50 53.2 °F /  11.8 °C 45.5 °F /  7.5 °C 30.39in /  1029hPa SW 3mph /  4.8km/h 5mph /  8km/h 75% 0.00in /  0mm 348 W/m2
15:00 54 °F /  12.2 °C 45.5 °F /  7.5 °C 30.38in /  1028.7hPa WNW 2mph /  3.2km/h 5mph /  8km/h 73% 0.00in /  0mm 326 W/m2
15:10 54.7 °F /  12.6 °C 45.8 °F /  7.7 °C 30.38in /  1028.7hPa NNW 1mph /  1.6km/h 6mph /  9.7km/h 72% 0.00in /  0mm 303 W/m2
15:20 55.2 °F /  12.9 °C 45.6 °F /  7.6 °C 30.37in /  1028.3hPa North 3mph /  4.8km/h 7mph /  11.3km/h 70% 0.00in /  0mm 279 W/m2
15:30 55.6 °F /  13.1 °C 45.2 °F /  7.3 °C 30.37in /  1028.3hPa NNW 3mph /  4.8km/h 8mph /  12.9km/h 68% 0.00in /  0mm 255 W/m2
15:40 55.9 °F /  13.3 °C 45.5 °F /  7.5 °C 30.37in /  1028.3hPa NNW 3mph /  4.8km/h 7mph /  11.3km/h 68% 0.00in /  0mm 230 W/m2
15:50 55.9 °F /  13.3 °C 45.5 °F /  7.5 °C 30.37in /  1028.3hPa NNW 5mph /  8km/h 7mph /  11.3km/h 68% 0.00in /  0mm 205 W/m2
16:00 55.9 °F /  13.3 °C 45.5 °F /  7.5 °C 30.36in /  1028hPa NNW 1mph /  1.6km/h 7mph /  11.3km/h 68% 0.00in /  0mm 180 W/m2
16:10 56.1 °F /  13.4 °C 45.7 °F /  7.6 °C 30.36in /  1028hPa NW 1mph /  1.6km/h 7mph /  11.3km/h 68% 0.00in /  0mm 153 W/m2
16:20 56.1 °F /  13.4 °C 45.7 °F /  7.6 °C 30.36in /  1028hPa NNE 3mph /  4.8km/h 9mph /  14.5km/h 68% 0.00in /  0mm 128 W/m2
16:30 56.1 °F /  13.4 °C 45.7 °F /  7.6 °C 30.36in /  1028hPa North 2mph /  3.2km/h 7mph /  11.3km/h 68% 0.00in /  0mm 99 W/m2
16:40 55.8 °F /  13.2 °C 45.4 °F /  7.4 °C 30.36in /  1028hPa NNW 1mph /  1.6km/h 6mph /  9.7km/h 68% 0.00in /  0mm 77 W/m2
16:50 55.4 °F /  13 °C 45 °F /  7.2 °C 30.36in /  1028hPa North 1mph /  1.6km/h 6mph /  9.7km/h 68% 0.00in /  0mm 57 W/m2
17:00 55 °F /  12.8 °C 44.7 °F /  7.1 °C 30.36in /  1028hPa North 5mph /  8km/h 10mph /  16.1km/h 68% 0.00in /  0mm 38 W/m2
17:10 54.5 °F /  12.5 °C 44.2 °F /  6.8 °C 30.36in /  1028hPa NNE 1mph /  1.6km/h 10mph /  16.1km/h 68% 0.00in /  0mm 20 W/m2
17:20 54.1 °F /  12.3 °C 44.2 °F /  6.8 °C 30.36in /  1028hPa NNE 2mph /  3.2km/h 8mph /  12.9km/h 69% 0.00in /  0mm 4 W/m2
17:30 53.4 °F /  11.9 °C 43.5 °F /  6.4 °C 30.36in /  1028hPa NNW 2mph /  3.2km/h 4mph /  6.4km/h 69% 0.00in /  0mm 6 W/m2
17:40 52.7 °F /  11.5 °C 42.8 °F /  6 °C 30.36in /  1028hPa NNW 3mph /  4.8km/h 7mph /  11.3km/h 69% 0.00in /  0mm 0 W/m2
17:50 52.2 °F /  11.2 °C 42.3 °F /  5.7 °C 30.35in /  1027.7hPa NNW 2mph /  3.2km/h 9mph /  14.5km/h 69% 0.00in /  0mm 0 W/m2
18:00 51.8 °F /  11 °C 42.3 °F /  5.7 °C 30.35in /  1027.7hPa Calm   3mph /  4.8km/h 70% 0.00in /  0mm 0 W/m2
18:10 50.9 °F /  10.5 °C 42.2 °F /  5.7 °C 30.36in /  1028hPa NE 1mph /  1.6km/h 5mph /  8km/h 72% 0.00in /  0mm 0 W/m2
18:20 49.8 °F /  9.9 °C 41.9 °F /  5.5 °C 30.36in /  1028hPa SW 1mph /  1.6km/h 3mph /  4.8km/h 74% 0.00in /  0mm 0 W/m2
18:30 48.9 °F /  9.4 °C 42 °F /  5.6 °C 30.37in /  1028.3hPa South 1mph /  1.6km/h 4mph /  6.4km/h 77% 0.00in /  0mm 0 W/m2
18:40 48 °F /  8.9 °C 41.5 °F /  5.3 °C 30.37in /  1028.3hPa South 1mph /  1.6km/h 2mph /  3.2km/h 78% 0.00in /  0mm 0 W/m2
18:50 47.1 °F /  8.4 °C 40.9 °F /  4.9 °C 30.37in /  1028.3hPa NW 1mph /  1.6km/h 3mph /  4.8km/h 79% 0.00in /  0mm 0 W/m2
19:00 46.4 °F /  8 °C 40.6 °F /  4.8 °C 30.37in /  1028.3hPa SW 1mph /  1.6km/h 2mph /  3.2km/h 80% 0.00in /  0mm 0 W/m2
19:10 45.9 °F /  7.7 °C 40 °F /  4.4 °C 30.37in /  1028.3hPa WSW 1mph /  1.6km/h 2mph /  3.2km/h 80% 0.00in /  0mm 0 W/m2
19:20 45.1 °F /  7.3 °C 39.7 °F /  4.3 °C 30.37in /  1028.3hPa WSW 1mph /  1.6km/h 2mph /  3.2km/h 81% 0.00in /  0mm 0 W/m2
19:30 44.4 °F /  6.9 °C 39.6 °F /  4.2 °C 30.37in /  1028.3hPa WSW 2mph /  3.2km/h 3mph /  4.8km/h 83% 0.00in /  0mm 0 W/m2
19:40 43.7 °F /  6.5 °C 38.9 °F /  3.8 °C 30.38in /  1028.7hPa West 1mph /  1.6km/h 3mph /  4.8km/h 83% 0.00in /  0mm 0 W/m2
19:50 43.2 °F /  6.2 °C 38.7 °F /  3.7 °C 30.37in /  1028.3hPa West 1mph /  1.6km/h 3mph /  4.8km/h 84% 0.00in /  0mm 0 W/m2
20:00 42.8 °F /  6 °C 38.3 °F /  3.5 °C 30.37in /  1028.3hPa WSW 1mph /  1.6km/h 2mph /  3.2km/h 84% 0.00in /  0mm 0 W/m2
20:10 42.3 °F /  5.7 °C 38.1 °F /  3.4 °C 30.37in /  1028.3hPa Calm   2mph /  3.2km/h 85% 0.00in /  0mm 0 W/m2
20:20 41.5 °F /  5.3 °C 37.4 °F /  3 °C 30.37in /  1028.3hPa WSW 2mph /  3.2km/h 4mph /  6.4km/h 85% 0.00in /  0mm 0 W/m2
20:30 41 °F /  5 °C 37.1 °F /  2.8 °C 30.37in /  1028.3hPa West 3mph /  4.8km/h 5mph /  8km/h 86% 0.00in /  0mm 0 W/m2
20:40 40.6 °F /  4.8 °C 36.8 °F /  2.7 °C 30.38in /  1028.7hPa West 2mph /  3.2km/h 4mph /  6.4km/h 86% 0.00in /  0mm 0 W/m2
20:50 40.1 °F /  4.5 °C 36.2 °F /  2.3 °C 30.38in /  1028.7hPa West 3mph /  4.8km/h 5mph /  8km/h 86% 0.00in /  0mm 0 W/m2
21:00 39.7 °F /  4.3 °C 36.5 °F /  2.5 °C 30.38in /  1028.7hPa West 3mph /  4.8km/h 5mph /  8km/h 88% 0.00in /  0mm 0 W/m2
21:10 39.6 °F /  4.2 °C 36.3 °F /  2.4 °C 30.38in /  1028.7hPa West 3mph /  4.8km/h 6mph /  9.7km/h 88% 0.00in /  0mm 0 W/m2
21:20 39.2 °F /  4 °C 35.9 °F /  2.2 °C 30.38in /  1028.7hPa West 2mph /  3.2km/h 5mph /  8km/h 88% 0.00in /  0mm 0 W/m2
21:30 38.8 °F /  3.8 °C 35.6 °F /  2 °C 30.38in /  1028.7hPa West 5mph /  8km/h 6mph /  9.7km/h 88% 0.00in /  0mm 0 W/m2
21:40 38.7 °F /  3.7 °C 35.7 °F /  2.1 °C 30.38in /  1028.7hPa West 2mph /  3.2km/h 5mph /  8km/h 89% 0.00in /  0mm 0 W/m2
21:50 38.3 °F /  3.5 °C 35 °F /  1.7 °C 30.38in /  1028.7hPa West 2mph /  3.2km/h 3mph /  4.8km/h 88% 0.00in /  0mm 0 W/m2
22:00 37.8 °F /  3.2 °C 34.8 °F /  1.6 °C 30.38in /  1028.7hPa West 2mph /  3.2km/h 5mph /  8km/h 89% 0.00in /  0mm 0 W/m2
22:10 37.6 °F /  3.1 °C 34.6 °F /  1.4 °C 30.38in /  1028.7hPa Calm   4mph /  6.4km/h 89% 0.00in /  0mm 0 W/m2
22:20 37.2 °F /  2.9 °C 34.3 °F /  1.3 °C 30.39in /  1029hPa West 1mph /  1.6km/h 2mph /  3.2km/h 89% 0.00in /  0mm 0 W/m2
22:30 37 °F /  2.8 °C 34.1 °F /  1.2 °C 30.39in /  1029hPa Calm   2mph /  3.2km/h 89% 0.00in /  0mm 0 W/m2
22:40 36.9 °F /  2.7 °C 34.2 °F /  1.2 °C 30.39in /  1029hPa Calm   2mph /  3.2km/h 90% 0.00in /  0mm 0 W/m2
22:50 36.7 °F /  2.6 °C 34.3 °F /  1.3 °C 30.39in /  1029hPa Calm   2mph /  3.2km/h 91% 0.00in /  0mm 0 W/m2
23:00 36.5 °F /  2.5 °C 34.1 °F /  1.2 °C 30.39in /  1029hPa Calm   2mph /  3.2km/h 91% 0.00in /  0mm 0 W/m2
23:10 36.3 °F /  2.4 °C 33.9 °F /  1.1 °C 30.39in /  1029hPa SW 1mph /  1.6km/h 5mph /  8km/h 91% 0.00in /  0mm 0 W/m2
23:20 36.3 °F /  2.4 °C 34.5 °F /  1.4 °C 30.39in /  1029hPa NW 1mph /  1.6km/h 4mph /  6.4km/h 93% 0.00in /  0mm 0 W/m2
23:30 36.3 °F /  2.4 °C 34.5 °F /  1.4 °C 30.39in /  1029hPa ESE 2mph /  3.2km/h 4mph /  6.4km/h 93% 0.00in /  0mm 0 W/m2
23:40 36.3 °F /  2.4 °C 34.5 °F /  1.4 °C 30.39in /  1029hPa Calm   4mph /  6.4km/h 93% 0.00in /  0mm 0 W/m2
23:50 36.1 °F /  2.3 °C 34.6 °F /  1.4 °C 30.39in /  1029hPa SSE 2mph /  3.2km/h 3mph /  4.8km/h 94% 0.00in /  0mm 0 W/m2
Knjazevac, Serbia
Compliments of Weather Underground - 2 mb